sensor_id;sensor_type;location;lat;lon;timestamp;P1;durP1;ratioP1;P2;durP2;ratioP2
77432;SDS011;66752;48.576;8.876;2023-03-17T00:00:29;9.93;;;4.95;;
77432;SDS011;66752;48.576;8.876;2023-03-17T00:02:56;9.90;;;4.63;;
77432;SDS011;66752;48.576;8.876;2023-03-17T00:05:24;10.73;;;5.13;;
77432;SDS011;66752;48.576;8.876;2023-03-17T00:07:52;9.68;;;5.00;;
77432;SDS011;66752;48.576;8.876;2023-03-17T00:10:22;11.95;;;4.57;;
77432;SDS011;66752;48.576;8.876;2023-03-17T00:12:50;9.68;;;5.00;;
77432;SDS011;66752;48.576;8.876;2023-03-17T00:15:17;9.15;;;5.40;;
77432;SDS011;66752;48.576;8.876;2023-03-17T00:17:44;10.30;;;5.35;;
77432;SDS011;66752;48.576;8.876;2023-03-17T00:20:22;9.43;;;5.63;;
77432;SDS011;66752;48.576;8.876;2023-03-17T00:22:49;9.68;;;5.70;;
77432;SDS011;66752;48.576;8.876;2023-03-17T00:25:16;10.80;;;5.90;;
77432;SDS011;66752;48.576;8.876;2023-03-17T00:27:42;10.88;;;5.40;;
77432;SDS011;66752;48.576;8.876;2023-03-17T00:32:36;11.07;;;5.07;;
77432;SDS011;66752;48.576;8.876;2023-03-17T00:35:04;10.45;;;4.55;;
77432;SDS011;66752;48.576;8.876;2023-03-17T00:37:38;9.85;;;4.90;;
77432;SDS011;66752;48.576;8.876;2023-03-17T00:40:08;8.68;;;4.50;;
77432;SDS011;66752;48.576;8.876;2023-03-17T00:42:34;9.70;;;4.53;;
77432;SDS011;66752;48.576;8.876;2023-03-17T00:45:00;10.55;;;4.43;;
77432;SDS011;66752;48.576;8.876;2023-03-17T00:47:26;10.13;;;4.82;;
77432;SDS011;66752;48.576;8.876;2023-03-17T00:49:52;9.30;;;4.72;;
77432;SDS011;66752;48.576;8.876;2023-03-17T00:52:18;9.98;;;5.07;;
77432;SDS011;66752;48.576;8.876;2023-03-17T00:54:45;11.18;;;5.50;;
77432;SDS011;66752;48.576;8.876;2023-03-17T00:57:11;8.68;;;4.60;;
77432;SDS011;66752;48.576;8.876;2023-03-17T00:59:38;10.43;;;5.00;;
77432;SDS011;66752;48.576;8.876;2023-03-17T01:02:05;11.15;;;5.20;;
77432;SDS011;66752;48.576;8.876;2023-03-17T01:04:32;7.95;;;4.07;;
77432;SDS011;66752;48.576;8.876;2023-03-17T01:06:58;7.57;;;4.55;;
77432;SDS011;66752;48.576;8.876;2023-03-17T01:09:25;8.40;;;4.47;;
77432;SDS011;66752;48.576;8.876;2023-03-17T01:11:53;8.55;;;4.78;;
77432;SDS011;66752;48.576;8.876;2023-03-17T01:16:46;8.38;;;4.20;;
77432;SDS011;66752;48.576;8.876;2023-03-17T01:19:13;9.43;;;4.88;;
77432;SDS011;66752;48.576;8.876;2023-03-17T01:21:40;8.35;;;4.30;;
77432;SDS011;66752;48.576;8.876;2023-03-17T01:24:06;10.45;;;4.25;;
77432;SDS011;66752;48.576;8.876;2023-03-17T01:26:33;7.90;;;4.10;;
77432;SDS011;66752;48.576;8.876;2023-03-17T01:28:59;8.15;;;3.83;;
77432;SDS011;66752;48.576;8.876;2023-03-17T01:31:26;6.60;;;3.35;;
77432;SDS011;66752;48.576;8.876;2023-03-17T01:33:52;9.02;;;3.92;;
77432;SDS011;66752;48.576;8.876;2023-03-17T01:36:18;9.10;;;4.05;;
77432;SDS011;66752;48.576;8.876;2023-03-17T01:38:44;10.63;;;3.47;;
77432;SDS011;66752;48.576;8.876;2023-03-17T01:41:12;6.38;;;3.60;;
77432;SDS011;66752;48.576;8.876;2023-03-17T01:43:38;7.10;;;3.90;;
77432;SDS011;66752;48.576;8.876;2023-03-17T01:46:12;7.63;;;3.90;;
77432;SDS011;66752;48.576;8.876;2023-03-17T01:53:50;15.30;;;6.70;;
77432;SDS011;66752;48.576;8.876;2023-03-17T01:56:17;21.75;;;9.57;;
77432;SDS011;66752;48.576;8.876;2023-03-17T01:58:44;13.82;;;7.78;;
77432;SDS011;66752;48.576;8.876;2023-03-17T02:01:12;16.48;;;6.43;;
77432;SDS011;66752;48.576;8.876;2023-03-17T02:03:38;10.27;;;5.15;;
77432;SDS011;66752;48.576;8.876;2023-03-17T02:06:04;7.32;;;4.07;;
77432;SDS011;66752;48.576;8.876;2023-03-17T02:08:31;8.05;;;4.05;;
77432;SDS011;66752;48.576;8.876;2023-03-17T02:10:57;9.30;;;3.67;;
77432;SDS011;66752;48.576;8.876;2023-03-17T02:13:23;9.23;;;4.35;;
77432;SDS011;66752;48.576;8.876;2023-03-17T02:15:51;9.38;;;4.30;;
77432;SDS011;66752;48.576;8.876;2023-03-17T02:18:18;9.63;;;4.75;;
77432;SDS011;66752;48.576;8.876;2023-03-17T02:23:11;8.52;;;3.63;;
77432;SDS011;66752;48.576;8.876;2023-03-17T02:25:38;9.10;;;3.92;;
77432;SDS011;66752;48.576;8.876;2023-03-17T02:28:06;7.45;;;4.28;;
77432;SDS011;66752;48.576;8.876;2023-03-17T02:30:34;7.72;;;4.50;;
77432;SDS011;66752;48.576;8.876;2023-03-17T02:35:27;6.35;;;3.20;;
77432;SDS011;66752;48.576;8.876;2023-03-17T02:37:53;7.55;;;3.97;;
77432;SDS011;66752;48.576;8.876;2023-03-17T02:40:20;9.27;;;4.30;;
77432;SDS011;66752;48.576;8.876;2023-03-17T02:42:47;6.18;;;3.63;;
77432;SDS011;66752;48.576;8.876;2023-03-17T02:45:13;7.88;;;3.95;;
77432;SDS011;66752;48.576;8.876;2023-03-17T02:47:40;8.25;;;3.55;;
77432;SDS011;66752;48.576;8.876;2023-03-17T02:50:07;6.90;;;3.60;;
77432;SDS011;66752;48.576;8.876;2023-03-17T02:52:33;6.63;;;3.40;;
77432;SDS011;66752;48.576;8.876;2023-03-17T02:54:59;6.78;;;4.13;;
77432;SDS011;66752;48.576;8.876;2023-03-17T02:57:25;8.02;;;3.75;;
77432;SDS011;66752;48.576;8.876;2023-03-17T02:59:51;7.43;;;4.00;;
77432;SDS011;66752;48.576;8.876;2023-03-17T03:02:18;6.97;;;4.00;;
77432;SDS011;66752;48.576;8.876;2023-03-17T03:04:44;7.20;;;4.13;;
77432;SDS011;66752;48.576;8.876;2023-03-17T03:07:10;9.80;;;3.97;;
77432;SDS011;66752;48.576;8.876;2023-03-17T03:09:36;6.90;;;3.78;;
77432;SDS011;66752;48.576;8.876;2023-03-17T03:12:02;7.32;;;3.95;;
77432;SDS011;66752;48.576;8.876;2023-03-17T03:14:29;7.93;;;3.63;;
77432;SDS011;66752;48.576;8.876;2023-03-17T03:16:56;8.50;;;3.80;;
77432;SDS011;66752;48.576;8.876;2023-03-17T03:19:22;8.02;;;4.15;;
77432;SDS011;66752;48.576;8.876;2023-03-17T03:21:48;7.60;;;3.88;;
77432;SDS011;66752;48.576;8.876;2023-03-17T03:24:14;6.65;;;3.63;;
77432;SDS011;66752;48.576;8.876;2023-03-17T03:26:40;8.10;;;3.85;;
77432;SDS011;66752;48.576;8.876;2023-03-17T03:29:06;7.82;;;3.85;;
77432;SDS011;66752;48.576;8.876;2023-03-17T03:31:33;8.15;;;4.75;;
77432;SDS011;66752;48.576;8.876;2023-03-17T03:33:59;7.63;;;4.20;;
77432;SDS011;66752;48.576;8.876;2023-03-17T03:36:25;8.68;;;4.57;;
77432;SDS011;66752;48.576;8.876;2023-03-17T03:38:51;6.88;;;3.28;;
77432;SDS011;66752;48.576;8.876;2023-03-17T03:41:17;6.05;;;3.67;;
77432;SDS011;66752;48.576;8.876;2023-03-17T03:43:43;9.98;;;4.03;;
77432;SDS011;66752;48.576;8.876;2023-03-17T03:46:10;7.15;;;3.88;;
77432;SDS011;66752;48.576;8.876;2023-03-17T03:48:36;7.43;;;4.22;;
77432;SDS011;66752;48.576;8.876;2023-03-17T03:51:02;7.38;;;4.00;;
77432;SDS011;66752;48.576;8.876;2023-03-17T03:55:55;7.07;;;3.90;;
77432;SDS011;66752;48.576;8.876;2023-03-17T03:58:21;6.78;;;3.47;;
77432;SDS011;66752;48.576;8.876;2023-03-17T04:00:47;7.70;;;3.80;;
77432;SDS011;66752;48.576;8.876;2023-03-17T04:03:14;7.22;;;3.65;;
77432;SDS011;66752;48.576;8.876;2023-03-17T04:05:40;10.30;;;4.35;;
77432;SDS011;66752;48.576;8.876;2023-03-17T04:08:07;8.13;;;3.47;;
77432;SDS011;66752;48.576;8.876;2023-03-17T04:10:35;9.27;;;4.22;;
77432;SDS011;66752;48.576;8.876;2023-03-17T04:13:01;8.65;;;4.03;;
77432;SDS011;66752;48.576;8.876;2023-03-17T04:15:27;8.38;;;3.60;;
77432;SDS011;66752;48.576;8.876;2023-03-17T04:17:53;7.72;;;3.60;;
77432;SDS011;66752;48.576;8.876;2023-03-17T04:20:19;8.23;;;4.03;;
77432;SDS011;66752;48.576;8.876;2023-03-17T04:22:46;7.28;;;4.13;;
77432;SDS011;66752;48.576;8.876;2023-03-17T04:25:12;6.72;;;3.88;;
77432;SDS011;66752;48.576;8.876;2023-03-17T04:27:39;7.80;;;3.90;;
77432;SDS011;66752;48.576;8.876;2023-03-17T04:30:06;6.18;;;3.40;;
77432;SDS011;66752;48.576;8.876;2023-03-17T04:32:32;7.05;;;3.45;;
77432;SDS011;66752;48.576;8.876;2023-03-17T04:34:58;8.52;;;3.95;;
77432;SDS011;66752;48.576;8.876;2023-03-17T04:37:24;8.13;;;4.88;;
77432;SDS011;66752;48.576;8.876;2023-03-17T04:39:50;8.90;;;3.88;;
77432;SDS011;66752;48.576;8.876;2023-03-17T04:42:17;6.40;;;3.70;;
77432;SDS011;66752;48.576;8.876;2023-03-17T04:44:43;7.82;;;3.70;;
77432;SDS011;66752;48.576;8.876;2023-03-17T04:47:10;7.40;;;3.67;;
77432;SDS011;66752;48.576;8.876;2023-03-17T04:49:36;8.82;;;4.13;;
77432;SDS011;66752;48.576;8.876;2023-03-17T04:52:02;7.70;;;4.10;;
77432;SDS011;66752;48.576;8.876;2023-03-17T04:54:28;7.25;;;3.65;;
77432;SDS011;66752;48.576;8.876;2023-03-17T04:56:54;7.22;;;3.63;;
77432;SDS011;66752;48.576;8.876;2023-03-17T04:59:20;8.00;;;4.30;;
77432;SDS011;66752;48.576;8.876;2023-03-17T05:01:46;7.95;;;4.30;;
77432;SDS011;66752;48.576;8.876;2023-03-17T05:04:12;7.47;;;3.78;;
77432;SDS011;66752;48.576;8.876;2023-03-17T05:06:38;7.38;;;3.97;;
77432;SDS011;66752;48.576;8.876;2023-03-17T05:09:04;6.13;;;3.67;;
77432;SDS011;66752;48.576;8.876;2023-03-17T05:11:30;7.55;;;4.30;;
77432;SDS011;66752;48.576;8.876;2023-03-17T05:13:56;6.88;;;4.25;;
77432;SDS011;66752;48.576;8.876;2023-03-17T05:16:22;7.45;;;4.22;;
77432;SDS011;66752;48.576;8.876;2023-03-17T05:18:48;8.35;;;3.78;;
77432;SDS011;66752;48.576;8.876;2023-03-17T05:21:14;9.20;;;4.03;;
77432;SDS011;66752;48.576;8.876;2023-03-17T05:23:41;8.90;;;3.95;;
77432;SDS011;66752;48.576;8.876;2023-03-17T05:26:08;7.93;;;4.07;;
77432;SDS011;66752;48.576;8.876;2023-03-17T05:28:34;8.35;;;3.92;;
77432;SDS011;66752;48.576;8.876;2023-03-17T05:31:01;6.88;;;3.65;;
77432;SDS011;66752;48.576;8.876;2023-03-17T05:33:27;7.80;;;4.75;;
77432;SDS011;66752;48.576;8.876;2023-03-17T05:35:53;7.57;;;3.70;;
77432;SDS011;66752;48.576;8.876;2023-03-17T05:38:20;6.55;;;3.40;;
77432;SDS011;66752;48.576;8.876;2023-03-17T05:40:47;7.30;;;3.83;;
77432;SDS011;66752;48.576;8.876;2023-03-17T05:43:14;7.35;;;3.83;;
77432;SDS011;66752;48.576;8.876;2023-03-17T05:45:39;6.65;;;3.67;;
77432;SDS011;66752;48.576;8.876;2023-03-17T05:48:06;8.43;;;3.70;;
77432;SDS011;66752;48.576;8.876;2023-03-17T05:50:32;7.53;;;3.50;;
77432;SDS011;66752;48.576;8.876;2023-03-17T05:52:58;7.80;;;3.38;;
77432;SDS011;66752;48.576;8.876;2023-03-17T05:55:25;7.03;;;3.75;;
77432;SDS011;66752;48.576;8.876;2023-03-17T05:57:50;7.40;;;3.85;;
77432;SDS011;66752;48.576;8.876;2023-03-17T06:00:16;6.90;;;3.60;;
77432;SDS011;66752;48.576;8.876;2023-03-17T06:02:43;8.00;;;4.05;;
77432;SDS011;66752;48.576;8.876;2023-03-17T06:05:09;7.32;;;3.72;;
77432;SDS011;66752;48.576;8.876;2023-03-17T06:07:36;6.93;;;4.35;;
77432;SDS011;66752;48.576;8.876;2023-03-17T06:10:02;8.38;;;4.30;;
77432;SDS011;66752;48.576;8.876;2023-03-17T06:12:29;7.25;;;3.53;;
77432;SDS011;66752;48.576;8.876;2023-03-17T06:14:55;10.73;;;4.32;;
77432;SDS011;66752;48.576;8.876;2023-03-17T06:17:21;9.38;;;4.55;;
77432;SDS011;66752;48.576;8.876;2023-03-17T06:19:47;8.77;;;4.50;;
77432;SDS011;66752;48.576;8.876;2023-03-17T06:22:13;8.02;;;4.40;;
77432;SDS011;66752;48.576;8.876;2023-03-17T06:24:40;10.18;;;4.32;;
77432;SDS011;66752;48.576;8.876;2023-03-17T06:27:06;10.23;;;4.82;;
77432;SDS011;66752;48.576;8.876;2023-03-17T06:29:33;8.70;;;5.80;;
77432;SDS011;66752;48.576;8.876;2023-03-17T06:31:59;10.98;;;6.10;;
77432;SDS011;66752;48.576;8.876;2023-03-17T06:34:25;12.18;;;5.57;;
77432;SDS011;66752;48.576;8.876;2023-03-17T06:36:51;10.43;;;5.72;;
77432;SDS011;66752;48.576;8.876;2023-03-17T06:39:17;11.30;;;6.70;;
77432;SDS011;66752;48.576;8.876;2023-03-17T06:41:44;13.13;;;7.63;;
77432;SDS011;66752;48.576;8.876;2023-03-17T06:44:10;10.57;;;5.78;;
77432;SDS011;66752;48.576;8.876;2023-03-17T06:46:36;10.75;;;5.43;;
77432;SDS011;66752;48.576;8.876;2023-03-17T06:49:02;9.15;;;5.30;;
77432;SDS011;66752;48.576;8.876;2023-03-17T06:51:29;12.52;;;6.00;;
77432;SDS011;66752;48.576;8.876;2023-03-17T06:53:56;10.23;;;5.85;;
77432;SDS011;66752;48.576;8.876;2023-03-17T06:56:22;13.38;;;8.68;;
77432;SDS011;66752;48.576;8.876;2023-03-17T06:58:48;9.68;;;4.93;;
77432;SDS011;66752;48.576;8.876;2023-03-17T07:01:15;8.75;;;4.63;;
77432;SDS011;66752;48.576;8.876;2023-03-17T07:03:42;12.10;;;5.10;;
77432;SDS011;66752;48.576;8.876;2023-03-17T07:06:09;10.13;;;5.03;;
77432;SDS011;66752;48.576;8.876;2023-03-17T07:08:35;12.88;;;5.55;;
77432;SDS011;66752;48.576;8.876;2023-03-17T07:11:01;9.27;;;5.53;;
77432;SDS011;66752;48.576;8.876;2023-03-17T07:13:28;11.05;;;6.60;;
77432;SDS011;66752;48.576;8.876;2023-03-17T07:15:55;27.10;;;13.45;;
77432;SDS011;66752;48.576;8.876;2023-03-17T07:18:22;16.42;;;8.20;;
77432;SDS011;66752;48.576;8.876;2023-03-17T07:20:48;11.02;;;5.88;;
77432;SDS011;66752;48.576;8.876;2023-03-17T07:23:15;8.55;;;4.85;;
77432;SDS011;66752;48.576;8.876;2023-03-17T07:25:43;9.05;;;4.35;;
77432;SDS011;66752;48.576;8.876;2023-03-17T07:28:11;10.68;;;4.85;;
77432;SDS011;66752;48.576;8.876;2023-03-17T07:30:38;10.65;;;4.85;;
77432;SDS011;66752;48.576;8.876;2023-03-17T07:33:07;7.82;;;4.35;;
77432;SDS011;66752;48.576;8.876;2023-03-17T07:35:34;9.57;;;4.47;;
77432;SDS011;66752;48.576;8.876;2023-03-17T07:38:00;7.53;;;3.90;;
77432;SDS011;66752;48.576;8.876;2023-03-17T07:40:27;9.80;;;4.88;;
77432;SDS011;66752;48.576;8.876;2023-03-17T07:42:53;12.57;;;5.43;;
77432;SDS011;66752;48.576;8.876;2023-03-17T07:45:20;10.88;;;5.07;;
77432;SDS011;66752;48.576;8.876;2023-03-17T07:47:46;11.57;;;5.43;;
77432;SDS011;66752;48.576;8.876;2023-03-17T07:50:12;10.40;;;5.18;;
77432;SDS011;66752;48.576;8.876;2023-03-17T07:52:39;10.82;;;5.38;;
77432;SDS011;66752;48.576;8.876;2023-03-17T07:55:06;12.50;;;4.80;;
77432;SDS011;66752;48.576;8.876;2023-03-17T07:57:36;9.43;;;4.78;;
77432;SDS011;66752;48.576;8.876;2023-03-17T08:00:03;8.75;;;5.03;;
77432;SDS011;66752;48.576;8.876;2023-03-17T08:02:34;8.20;;;4.28;;
77432;SDS011;66752;48.576;8.876;2023-03-17T08:05:01;10.77;;;4.38;;
77432;SDS011;66752;48.576;8.876;2023-03-17T08:07:27;8.77;;;4.57;;
77432;SDS011;66752;48.576;8.876;2023-03-17T08:09:53;10.57;;;5.28;;
77432;SDS011;66752;48.576;8.876;2023-03-17T08:12:19;8.93;;;3.90;;
77432;SDS011;66752;48.576;8.876;2023-03-17T08:14:47;7.45;;;3.78;;
77432;SDS011;66752;48.576;8.876;2023-03-17T08:17:14;7.50;;;4.00;;
77432;SDS011;66752;48.576;8.876;2023-03-17T08:19:40;8.50;;;4.18;;
77432;SDS011;66752;48.576;8.876;2023-03-17T08:22:07;7.70;;;3.95;;
77432;SDS011;66752;48.576;8.876;2023-03-17T08:24:33;8.20;;;3.92;;
77432;SDS011;66752;48.576;8.876;2023-03-17T08:27:00;9.13;;;3.72;;
77432;SDS011;66752;48.576;8.876;2023-03-17T08:29:27;8.60;;;4.93;;
77432;SDS011;66752;48.576;8.876;2023-03-17T08:31:54;10.90;;;4.60;;
77432;SDS011;66752;48.576;8.876;2023-03-17T08:34:20;11.15;;;4.25;;
77432;SDS011;66752;48.576;8.876;2023-03-17T08:36:48;7.60;;;4.80;;
77432;SDS011;66752;48.576;8.876;2023-03-17T08:39:15;8.45;;;4.60;;
77432;SDS011;66752;48.576;8.876;2023-03-17T08:41:41;7.55;;;4.28;;
77432;SDS011;66752;48.576;8.876;2023-03-17T08:44:07;9.23;;;4.55;;
77432;SDS011;66752;48.576;8.876;2023-03-17T08:46:33;8.57;;;3.90;;
77432;SDS011;66752;48.576;8.876;2023-03-17T08:48:59;8.98;;;4.28;;
77432;SDS011;66752;48.576;8.876;2023-03-17T08:51:27;8.50;;;4.28;;
77432;SDS011;66752;48.576;8.876;2023-03-17T08:53:54;7.03;;;4.28;;
77432;SDS011;66752;48.576;8.876;2023-03-17T08:56:20;7.57;;;4.00;;
77432;SDS011;66752;48.576;8.876;2023-03-17T08:58:46;7.43;;;4.88;;
77432;SDS011;66752;48.576;8.876;2023-03-17T09:01:13;8.25;;;4.63;;
77432;SDS011;66752;48.576;8.876;2023-03-17T09:03:40;9.65;;;3.75;;
77432;SDS011;66752;48.576;8.876;2023-03-17T09:06:07;8.80;;;3.85;;
77432;SDS011;66752;48.576;8.876;2023-03-17T09:08:35;7.85;;;4.40;;
77432;SDS011;66752;48.576;8.876;2023-03-17T09:11:03;9.27;;;4.22;;
77432;SDS011;66752;48.576;8.876;2023-03-17T09:13:30;10.68;;;4.18;;
77432;SDS011;66752;48.576;8.876;2023-03-17T09:15:56;8.90;;;3.83;;
77432;SDS011;66752;48.576;8.876;2023-03-17T09:18:22;8.52;;;5.00;;
77432;SDS011;66752;48.576;8.876;2023-03-17T09:20:48;8.38;;;4.22;;
77432;SDS011;66752;48.576;8.876;2023-03-17T09:23:14;8.93;;;3.95;;
77432;SDS011;66752;48.576;8.876;2023-03-17T09:25:40;8.38;;;4.00;;
77432;SDS011;66752;48.576;8.876;2023-03-17T09:28:06;7.78;;;3.67;;
77432;SDS011;66752;48.576;8.876;2023-03-17T09:30:32;7.47;;;3.95;;
77432;SDS011;66752;48.576;8.876;2023-03-17T09:32:59;6.57;;;3.58;;
77432;SDS011;66752;48.576;8.876;2023-03-17T09:35:26;7.20;;;3.50;;
77432;SDS011;66752;48.576;8.876;2023-03-17T09:37:52;8.43;;;3.92;;
77432;SDS011;66752;48.576;8.876;2023-03-17T09:40:20;8.60;;;3.95;;
77432;SDS011;66752;48.576;8.876;2023-03-17T09:42:52;7.30;;;4.22;;
77432;SDS011;66752;48.576;8.876;2023-03-17T09:50:27;7.07;;;4.00;;
77432;SDS011;66752;48.576;8.876;2023-03-17T09:52:56;8.55;;;3.70;;
77432;SDS011;66752;48.576;8.876;2023-03-17T09:55:28;7.38;;;4.07;;
77432;SDS011;66752;48.576;8.876;2023-03-17T09:57:56;8.95;;;4.25;;
77432;SDS011;66752;48.576;8.876;2023-03-17T10:00:25;7.22;;;3.60;;
77432;SDS011;66752;48.576;8.876;2023-03-17T10:02:53;8.95;;;3.85;;
77432;SDS011;66752;48.576;8.876;2023-03-17T10:12:55;7.10;;;3.50;;
77432;SDS011;66752;48.576;8.876;2023-03-17T10:15:26;7.18;;;3.55;;
77432;SDS011;66752;48.576;8.876;2023-03-17T10:17:56;6.20;;;3.70;;
77432;SDS011;66752;48.576;8.876;2023-03-17T10:22:55;10.43;;;4.30;;
77432;SDS011;66752;48.576;8.876;2023-03-17T10:25:23;9.13;;;4.43;;
77432;SDS011;66752;48.576;8.876;2023-03-17T10:27:51;7.90;;;4.13;;
77432;SDS011;66752;48.576;8.876;2023-03-17T10:30:20;8.55;;;3.70;;
77432;SDS011;66752;48.576;8.876;2023-03-17T10:32:47;7.68;;;3.88;;
77432;SDS011;66752;48.576;8.876;2023-03-17T10:35:14;6.97;;;3.97;;
77432;SDS011;66752;48.576;8.876;2023-03-17T10:37:47;7.75;;;3.65;;
77432;SDS011;66752;48.576;8.876;2023-03-17T10:40:21;6.38;;;3.47;;
77432;SDS011;66752;48.576;8.876;2023-03-17T10:42:51;11.65;;;5.00;;
77432;SDS011;66752;48.576;8.876;2023-03-17T10:45:30;7.65;;;4.32;;
77432;SDS011;66752;48.576;8.876;2023-03-17T10:50:24;5.75;;;4.10;;
77432;SDS011;66752;48.576;8.876;2023-03-17T10:52:55;8.23;;;4.10;;
77432;SDS011;66752;48.576;8.876;2023-03-17T10:55:24;7.00;;;3.90;;
77432;SDS011;66752;48.576;8.876;2023-03-17T10:57:53;7.20;;;3.80;;
77432;SDS011;66752;48.576;8.876;2023-03-17T11:00:22;7.63;;;4.13;;
77432;SDS011;66752;48.576;8.876;2023-03-17T11:02:55;10.35;;;3.80;;
77432;SDS011;66752;48.576;8.876;2023-03-17T11:05:26;6.75;;;3.55;;
77432;SDS011;66752;48.576;8.876;2023-03-17T11:08:09;8.73;;;4.07;;
77432;SDS011;66752;48.576;8.876;2023-03-17T11:10:40;7.30;;;3.45;;
77432;SDS011;66752;48.576;8.876;2023-03-17T11:13:06;9.00;;;3.97;;
77432;SDS011;66752;48.576;8.876;2023-03-17T11:15:39;7.43;;;3.60;;
77432;SDS011;66752;48.576;8.876;2023-03-17T11:20:53;9.30;;;3.40;;
77432;SDS011;66752;48.576;8.876;2023-03-17T11:26:23;8.00;;;3.85;;
77432;SDS011;66752;48.576;8.876;2023-03-17T11:29:36;10.60;;;3.50;;
77432;SDS011;66752;48.576;8.876;2023-03-17T11:34:13;7.68;;;3.45;;
77432;SDS011;66752;48.576;8.876;2023-03-17T11:39:11;5.95;;;3.30;;
77432;SDS011;66752;48.576;8.876;2023-03-17T11:49:43;7.68;;;3.33;;
77432;SDS011;66752;48.576;8.876;2023-03-17T11:57:37;7.45;;;3.80;;
77432;SDS011;66752;48.576;8.876;2023-03-17T12:03:29;6.55;;;3.30;;
77432;SDS011;66752;48.576;8.876;2023-03-17T12:05:27;6.53;;;3.22;;
77432;SDS011;66752;48.576;8.876;2023-03-17T12:07:57;6.45;;;2.78;;
77432;SDS011;66752;48.576;8.876;2023-03-17T12:12:57;6.53;;;3.35;;
77432;SDS011;66752;48.576;8.876;2023-03-17T12:15:25;6.93;;;3.28;;
77432;SDS011;66752;48.576;8.876;2023-03-17T12:17:56;7.00;;;3.47;;
77432;SDS011;66752;48.576;8.876;2023-03-17T12:20:32;5.93;;;3.03;;
77432;SDS011;66752;48.576;8.876;2023-03-17T12:23:44;7.75;;;3.05;;
77432;SDS011;66752;48.576;8.876;2023-03-17T12:28:24;8.38;;;2.85;;
77432;SDS011;66752;48.576;8.876;2023-03-17T12:30:52;5.50;;;2.72;;
77432;SDS011;66752;48.576;8.876;2023-03-17T12:33:27;5.93;;;2.50;;
77432;SDS011;66752;48.576;8.876;2023-03-17T12:35:55;7.38;;;2.72;;
77432;SDS011;66752;48.576;8.876;2023-03-17T12:38:24;5.55;;;2.75;;
77432;SDS011;66752;48.576;8.876;2023-03-17T12:46:18;6.13;;;2.95;;
77432;SDS011;66752;48.576;8.876;2023-03-17T12:48:50;4.88;;;2.65;;
77432;SDS011;66752;48.576;8.876;2023-03-17T12:53:52;6.10;;;2.63;;
77432;SDS011;66752;48.576;8.876;2023-03-17T12:58:51;4.70;;;2.53;;
77432;SDS011;66752;48.576;8.876;2023-03-17T13:06:38;5.43;;;2.40;;
77432;SDS011;66752;48.576;8.876;2023-03-17T13:11:53;5.75;;;2.25;;
77432;SDS011;66752;48.576;8.876;2023-03-17T13:27:51;5.85;;;2.25;;
77432;SDS011;66752;48.576;8.876;2023-03-17T13:32:54;5.25;;;2.72;;
77432;SDS011;66752;48.576;8.876;2023-03-17T13:35:21;6.85;;;2.47;;
77432;SDS011;66752;48.576;8.876;2023-03-17T13:43:30;5.82;;;2.28;;
77432;SDS011;66752;48.576;8.876;2023-03-17T13:48:42;5.47;;;2.70;;
77432;SDS011;66752;48.576;8.876;2023-03-17T13:53:51;6.38;;;2.53;;
77432;SDS011;66752;48.576;8.876;2023-03-17T13:57:19;5.18;;;2.50;;
77432;SDS011;66752;48.576;8.876;2023-03-17T13:59:16;6.78;;;3.33;;
77432;SDS011;66752;48.576;8.876;2023-03-17T14:01:46;5.85;;;2.70;;
77432;SDS011;66752;48.576;8.876;2023-03-17T14:04:18;7.55;;;3.33;;
77432;SDS011;66752;48.576;8.876;2023-03-17T14:06:45;5.65;;;2.63;;
77432;SDS011;66752;48.576;8.876;2023-03-17T14:11:52;8.32;;;2.90;;
77432;SDS011;66752;48.576;8.876;2023-03-17T14:16:46;6.05;;;2.38;;
77432;SDS011;66752;48.576;8.876;2023-03-17T14:19:19;6.97;;;2.67;;
77432;SDS011;66752;48.576;8.876;2023-03-17T14:21:45;7.00;;;2.83;;
77432;SDS011;66752;48.576;8.876;2023-03-17T14:24:22;5.35;;;2.63;;
77432;SDS011;66752;48.576;8.876;2023-03-17T14:26:49;6.38;;;2.72;;
77432;SDS011;66752;48.576;8.876;2023-03-17T14:29:16;5.97;;;2.60;;
77432;SDS011;66752;48.576;8.876;2023-03-17T14:31:47;6.95;;;2.60;;
77432;SDS011;66752;48.576;8.876;2023-03-17T14:34:14;6.07;;;2.33;;
77432;SDS011;66752;48.576;8.876;2023-03-17T14:36:40;5.90;;;2.70;;
77432;SDS011;66752;48.576;8.876;2023-03-17T14:39:06;5.55;;;2.63;;
77432;SDS011;66752;48.576;8.876;2023-03-17T14:41:33;7.30;;;3.00;;
77432;SDS011;66752;48.576;8.876;2023-03-17T14:44:00;5.53;;;2.60;;
77432;SDS011;66752;48.576;8.876;2023-03-17T14:46:34;5.78;;;2.60;;
77432;SDS011;66752;48.576;8.876;2023-03-17T14:51:27;6.43;;;2.30;;
77432;SDS011;66752;48.576;8.876;2023-03-17T14:53:56;5.97;;;2.38;;
77432;SDS011;66752;48.576;8.876;2023-03-17T14:56:23;5.38;;;2.30;;
77432;SDS011;66752;48.576;8.876;2023-03-17T14:58:51;5.50;;;2.40;;
77432;SDS011;66752;48.576;8.876;2023-03-17T15:01:19;5.15;;;2.20;;
77432;SDS011;66752;48.576;8.876;2023-03-17T15:03:52;4.95;;;2.08;;
77432;SDS011;66752;48.576;8.876;2023-03-17T15:06:22;4.72;;;1.80;;
77432;SDS011;66752;48.576;8.876;2023-03-17T15:08:49;5.57;;;2.22;;
77432;SDS011;66752;48.576;8.876;2023-03-17T15:11:27;4.30;;;1.73;;
77432;SDS011;66752;48.576;8.876;2023-03-17T15:13:54;8.48;;;1.65;;
77432;SDS011;66752;48.576;8.876;2023-03-17T15:16:22;4.50;;;1.80;;
77432;SDS011;66752;48.576;8.876;2023-03-17T15:18:51;4.53;;;1.80;;
77432;SDS011;66752;48.576;8.876;2023-03-17T15:21:39;4.22;;;1.65;;
77432;SDS011;66752;48.576;8.876;2023-03-17T15:26:57;6.43;;;2.08;;
77432;SDS011;66752;48.576;8.876;2023-03-17T15:29:23;7.95;;;2.13;;
77432;SDS011;66752;48.576;8.876;2023-03-17T15:31:49;4.25;;;1.58;;
77432;SDS011;66752;48.576;8.876;2023-03-17T15:34:15;4.68;;;1.60;;
77432;SDS011;66752;48.576;8.876;2023-03-17T15:36:41;5.43;;;2.10;;
77432;SDS011;66752;48.576;8.876;2023-03-17T15:39:11;5.13;;;1.90;;
77432;SDS011;66752;48.576;8.876;2023-03-17T15:41:37;7.95;;;2.20;;
77432;SDS011;66752;48.576;8.876;2023-03-17T15:44:03;4.80;;;2.08;;
77432;SDS011;66752;48.576;8.876;2023-03-17T15:46:29;5.55;;;2.40;;
77432;SDS011;66752;48.576;8.876;2023-03-17T15:48:56;5.15;;;1.83;;
77432;SDS011;66752;48.576;8.876;2023-03-17T15:51:22;6.78;;;2.20;;
77432;SDS011;66752;48.576;8.876;2023-03-17T15:53:48;4.70;;;2.35;;
77432;SDS011;66752;48.576;8.876;2023-03-17T15:56:15;6.10;;;2.30;;
77432;SDS011;66752;48.576;8.876;2023-03-17T15:58:43;4.80;;;1.98;;
77432;SDS011;66752;48.576;8.876;2023-03-17T16:01:10;4.78;;;1.83;;
77432;SDS011;66752;48.576;8.876;2023-03-17T16:03:37;7.32;;;2.53;;
77432;SDS011;66752;48.576;8.876;2023-03-17T16:06:06;6.75;;;2.80;;
77432;SDS011;66752;48.576;8.876;2023-03-17T16:08:34;6.32;;;2.67;;
77432;SDS011;66752;48.576;8.876;2023-03-17T16:11:05;6.35;;;2.70;;
77432;SDS011;66752;48.576;8.876;2023-03-17T16:13:31;6.15;;;2.72;;
77432;SDS011;66752;48.576;8.876;2023-03-17T16:15:58;5.50;;;2.72;;
77432;SDS011;66752;48.576;8.876;2023-03-17T16:18:32;6.35;;;2.80;;
77432;SDS011;66752;48.576;8.876;2023-03-17T16:20:58;12.52;;;7.95;;
77432;SDS011;66752;48.576;8.876;2023-03-17T16:23:26;22.75;;;14.80;;
77432;SDS011;66752;48.576;8.876;2023-03-17T16:25:53;13.82;;;7.10;;
77432;SDS011;66752;48.576;8.876;2023-03-17T16:30:47;9.23;;;3.75;;
77432;SDS011;66752;48.576;8.876;2023-03-17T16:33:27;5.30;;;2.05;;
77432;SDS011;66752;48.576;8.876;2023-03-17T16:35:57;6.75;;;2.75;;
77432;SDS011;66752;48.576;8.876;2023-03-17T16:38:24;5.25;;;2.13;;
77432;SDS011;66752;48.576;8.876;2023-03-17T16:40:51;4.72;;;2.05;;
77432;SDS011;66752;48.576;8.876;2023-03-17T16:43:18;5.38;;;2.20;;
77432;SDS011;66752;48.576;8.876;2023-03-17T16:45:45;7.43;;;2.40;;
77432;SDS011;66752;48.576;8.876;2023-03-17T16:48:13;4.95;;;1.58;;
77432;SDS011;66752;48.576;8.876;2023-03-17T16:50:40;3.97;;;1.63;;
77432;SDS011;66752;48.576;8.876;2023-03-17T16:53:06;4.32;;;1.35;;